Time;durP1;ratioP1;P1;durP2;ratioP2;P2;SDS_P1;SDS_P2;PMS_P1;PMS_P2;Temp;Humidity;BMP_temperature;BMP_pressure;BME280_temperature;BME280_humidity;BME280_pressure;Samples;Min_cycle;Max_cycle;Signal;HPM_P1;HPM_P2
2023/11/03 00:01:22;;;;;;;4.93;1.80;;;;;;;7.42;70.80;95780.53;4994350;28;103057;-65
2023/11/03 00:03:50;;;;;;;6.18;2.15;;;;;;;7.34;71.72;95780.06;4975680;28;103419;-65
2023/11/03 00:06:18;;;;;;;3.95;1.80;;;;;;;7.38;71.69;95779.38;4996471;28;102608;-65
2023/11/03 00:08:48;;;;;;;7.65;2.30;;;;;;;7.39;71.30;95777.53;4990571;28;102700;-65
2023/11/03 00:11:16;;;;;;;3.70;1.80;;;;;;;7.38;71.33;95771.47;4996439;28;103253;-65
2023/11/03 00:13:45;;;;;;;2.47;1.70;;;;;;;7.41;71.41;95784.19;4991134;28;103219;-65
2023/11/03 00:16:13;;;;;;;3.97;1.67;;;;;;;7.39;71.29;95781.00;4976672;28;102802;-65
2023/11/03 00:18:41;;;;;;;4.53;1.92;;;;;;;7.38;70.95;95784.66;4992049;28;102693;-65
2023/11/03 00:21:09;;;;;;;4.50;1.58;;;;;;;7.38;71.16;95783.84;4991263;28;103339;-65
2023/11/03 00:23:37;;;;;;;4.25;1.60;;;;;;;7.34;70.96;95788.75;4974818;28;103710;-65
2023/11/03 00:26:10;;;;;;;3.55;1.27;;;;;;;7.35;71.13;95797.44;4995077;28;102583;-65
2023/11/03 00:28:41;;;;;;;3.50;1.60;;;;;;;7.36;71.32;95791.94;4993913;28;103985;-65
2023/11/03 00:31:11;;;;;;;1.67;0.98;;;;;;;7.31;71.17;95799.72;4980788;28;104020;-65
2023/11/03 00:33:39;;;;;;;3.95;1.45;;;;;;;7.26;71.33;95791.69;4975184;28;103341;-65
2023/11/03 00:36:08;;;;;;;3.95;2.35;;;;;;;7.19;71.19;95793.56;4991766;28;102515;-65
2023/11/03 00:38:37;;;;;;;4.40;2.10;;;;;;;7.07;71.45;95794.25;4974946;28;102962;-65
2023/11/03 00:41:05;;;;;;;5.78;2.55;;;;;;;6.91;71.55;95790.38;4975805;28;104270;-65
2023/11/03 00:43:35;;;;;;;4.55;2.22;;;;;;;6.79;72.34;95792.09;4968403;28;103196;-65
2023/11/03 00:46:04;;;;;;;3.60;2.05;;;;;;;6.72;72.73;95784.28;4973336;28;102663;-65
2023/11/03 00:48:32;;;;;;;5.88;2.47;;;;;;;6.58;72.53;95795.91;4969472;28;103063;-65
2023/11/03 00:50:59;;;;;;;3.50;1.92;;;;;;;6.49;73.49;95791.94;4988261;28;103257;-65
2023/11/03 00:53:27;;;;;;;6.53;2.50;;;;;;;6.42;72.98;95786.72;4971507;28;103423;-65
2023/11/03 00:55:55;;;;;;;4.95;3.03;;;;;;;6.35;73.48;95796.47;4977315;28;102693;-65
2023/11/03 00:58:23;;;;;;;3.40;1.77;;;;;;;6.32;73.68;95791.66;4971817;28;103008;-65
2023/11/03 01:00:55;;;;;;;4.68;1.90;;;;;;;6.26;73.87;95794.13;4992796;28;103034;-65
2023/11/03 01:03:23;;;;;;;3.90;1.80;;;;;;;6.31;73.96;95788.22;4977434;28;104442;-65
2023/11/03 01:05:54;;;;;;;4.18;2.00;;;;;;;6.19;73.86;95790.72;4974832;28;103228;-66
2023/11/03 01:08:22;;;;;;;7.63;2.58;;;;;;;6.22;73.91;95785.06;4990264;28;102678;-68
2023/11/03 01:10:50;;;;;;;3.42;2.00;;;;;;;6.10;73.36;95779.63;4994478;28;103272;-69
2023/11/03 01:13:21;;;;;;;4.18;2.15;;;;;;;6.06;74.41;95796.84;4992618;28;103503;-68
2023/11/03 01:15:51;;;;;;;5.82;1.90;;;;;;;5.92;74.62;95798.72;4996742;28;102560;-69
2023/11/03 01:18:21;;;;;;;3.80;1.77;;;;;;;6.01;74.62;95809.00;4995782;28;104088;-69
2023/11/03 01:20:52;;;;;;;2.90;1.60;;;;;;;6.02;74.61;95808.78;4993804;28;103221;-68
2023/11/03 01:23:20;;;;;;;3.30;1.63;;;;;;;6.10;74.64;95811.16;4996321;28;103198;-68
2023/11/03 01:25:50;;;;;;;2.42;1.48;;;;;;;6.19;74.48;95813.56;4973410;28;102834;-68
2023/11/03 01:28:18;;;;;;;3.30;1.48;;;;;;;6.26;74.01;95814.31;4976605;28;104099;-69
2023/11/03 01:30:46;;;;;;;3.20;1.80;;;;;;;6.30;73.67;95815.50;4978091;28;103424;-69
2023/11/03 01:33:17;;;;;;;2.65;1.63;;;;;;;6.34;73.56;95811.47;4998969;28;103304;-69
2023/11/03 01:35:48;;;;;;;4.72;2.35;;;;;;;6.30;73.69;95826.84;4976885;28;104433;-68
2023/11/03 01:38:16;;;;;;;6.78;2.50;;;;;;;6.28;73.31;95833.31;4977079;28;103042;-69
2023/11/03 01:40:44;;;;;;;4.13;2.22;;;;;;;6.25;73.77;95834.56;4990829;28;103395;-69
2023/11/03 01:43:12;;;;;;;5.15;2.35;;;;;;;6.28;73.87;95834.13;4992105;28;103354;-69
2023/11/03 01:45:43;;;;;;;4.50;2.10;;;;;;;6.26;73.36;95840.59;4995241;28;102611;-69
2023/11/03 01:48:12;;;;;;;5.97;2.28;;;;;;;6.24;73.59;95837.41;4980148;28;102619;-69
2023/11/03 01:50:42;;;;;;;3.90;1.90;;;;;;;6.24;73.63;95832.13;4973839;28;104314;-69
2023/11/03 01:53:14;;;;;;;2.50;1.60;;;;;;;6.26;73.49;95837.97;4978231;28;103284;-69
2023/11/03 01:55:44;;;;;;;3.90;2.08;;;;;;;6.30;73.38;95841.78;4974836;28;102682;-69
2023/11/03 01:58:15;;;;;;;4.22;1.95;;;;;;;6.36;73.35;95846.22;4981231;28;104061;-69
2023/11/03 02:00:43;;;;;;;4.03;1.52;;;;;;;6.31;73.53;95848.66;4977451;28;103289;-69
2023/11/03 02:03:11;;;;;;;6.65;1.48;;;;;;;6.30;73.06;95836.53;4997296;28;102920;-69
2023/11/03 02:05:39;;;;;;;3.13;1.77;;;;;;;6.29;73.30;95834.94;4978354;28;102707;-69
2023/11/03 02:08:10;;;;;;;5.25;1.90;;;;;;;6.31;72.85;95832.91;4978067;28;104021;-69
2023/11/03 02:10:42;;;;;;;3.60;1.63;;;;;;;6.29;73.39;95832.31;4975937;28;103196;-69
2023/11/03 02:13:11;;;;;;;3.80;1.77;;;;;;;6.25;73.11;95831.09;4988440;28;103645;-69
2023/11/03 02:15:40;;;;;;;5.03;1.70;;;;;;;6.28;73.49;95833.31;4973246;28;102769;-69
2023/11/03 02:18:09;;;;;;;3.42;1.42;;;;;;;6.30;73.26;95831.28;4976386;28;102718;-69
2023/11/03 02:20:37;;;;;;;1.85;1.17;;;;;;;6.32;73.12;95829.25;4971780;28;103441;-69
2023/11/03 02:23:08;;;;;;;2.72;1.55;;;;;;;6.32;72.73;95834.50;4979784;28;103225;-69
2023/11/03 02:25:36;;;;;;;6.20;2.03;;;;;;;6.26;72.80;95837.97;4973229;28;102826;-68
2023/11/03 02:28:06;;;;;;;2.03;1.40;;;;;;;6.25;73.31;95833.72;4975568;28;103426;-69
2023/11/03 02:30:34;;;;;;;3.08;1.60;;;;;;;6.22;73.00;95839.41;4993316;28;103983;-69
2023/11/03 02:33:02;;;;;;;5.18;1.63;;;;;;;6.24;73.05;95827.69;4972270;28;103177;-69
2023/11/03 02:35:32;;;;;;;4.38;1.60;;;;;;;6.22;72.89;95834.16;4993920;28;102594;-69
2023/11/03 02:37:59;;;;;;;3.67;1.90;;;;;;;6.23;73.25;95830.53;4992268;28;102725;-69
2023/11/03 02:40:29;;;;;;;3.25;1.85;;;;;;;6.28;73.42;95833.31;4991865;28;102984;-68
2023/11/03 02:42:57;;;;;;;3.38;1.60;;;;;;;6.25;73.61;95831.94;4974816;28;104119;-69
2023/11/03 02:45:25;;;;;;;3.70;2.10;;;;;;;6.19;72.65;95839.84;4996767;28;102629;-69
2023/11/03 02:47:53;;;;;;;4.07;2.28;;;;;;;6.04;73.39;95840.09;4977969;28;103124;-69
2023/11/03 02:50:21;;;;;;;8.05;2.85;;;;;;;5.85;73.84;95839.16;4975712;28;103288;-69
2023/11/03 02:52:49;;;;;;;6.78;2.28;;;;;;;5.57;75.11;95843.69;4975042;28;103271;-69
2023/11/03 02:55:20;;;;;;;5.60;2.40;;;;;;;5.54;75.32;95840.69;4973248;28;102718;-69
2023/11/03 03:02:10;;;;;;;7.78;2.63;;;;;;;5.41;75.79;95839.72;4984426;28;103083;-68
2023/11/03 03:04:40;;;;;;;5.20;1.90;;;;;;;5.37;75.97;95838.50;4977953;28;103244;-68
2023/11/03 03:07:08;;;;;;;9.40;2.28;;;;;;;5.47;75.86;95828.38;4976250;28;102680;-69
2023/11/03 03:09:36;;;;;;;4.60;2.35;;;;;;;5.44;75.58;95828.78;4981107;28;102705;-68
2023/11/03 03:12:04;;;;;;;2.72;1.50;;;;;;;5.53;75.82;95836.44;4991741;28;103392;-68
2023/11/03 03:14:34;;;;;;;2.17;1.58;;;;;;;5.59;75.46;95833.81;4974978;28;103111;-69
2023/11/03 03:17:02;;;;;;;1.98;1.33;;;;;;;5.62;75.35;95832.56;4985689;28;102716;-69
2023/11/03 03:19:31;;;;;;;5.93;2.25;;;;;;;5.67;74.85;95840.63;4991654;28;102591;-69
2023/11/03 03:21:59;;;;;;;6.85;2.30;;;;;;;5.56;75.38;95842.09;4992149;28;103234;-69
2023/11/03 03:24:27;;;;;;;3.42;1.60;;;;;;;5.52;75.14;95840.88;4977712;28;103235;-69
2023/11/03 03:26:55;;;;;;;2.97;1.60;;;;;;;5.56;74.62;95836.03;4972439;28;102692;-68
2023/11/03 03:29:25;;;;;;;3.63;1.50;;;;;;;5.54;75.03;95838.06;4995580;28;103703;-69
2023/11/03 03:31:55;;;;;;;6.07;2.17;;;;;;;5.45;75.12;95830.41;4974480;28;104035;-69
2023/11/03 03:34:23;;;;;;;6.72;2.55;;;;;;;5.38;75.83;95834.84;4977701;28;103450;-69
2023/11/03 03:36:53;;;;;;;9.70;2.72;;;;;;;5.38;75.85;95821.72;4975812;28;102709;-69
2023/11/03 03:39:21;;;;;;;3.22;1.80;;;;;;;5.36;76.64;95818.53;4976346;28;103721;-69
2023/11/03 03:41:50;;;;;;;4.45;1.92;;;;;;;5.40;76.47;95827.59;4995866;28;103305;-69
2023/11/03 03:44:18;;;;;;;2.47;1.58;;;;;;;5.52;76.53;95812.00;4974309;28;103528;-69
2023/11/03 03:46:46;;;;;;;3.83;2.08;;;;;;;5.63;75.58;95828.94;4996155;28;103007;-69
2023/11/03 03:49:14;;;;;;;3.72;2.00;;;;;;;5.60;75.46;95822.28;4976617;28;104109;-69
2023/11/03 03:51:42;;;;;;;5.13;1.90;;;;;;;5.69;75.16;95817.59;4976675;28;103363;-69
2023/11/03 03:54:12;;;;;;;4.35;1.60;;;;;;;5.70;75.29;95821.84;4988036;28;103204;-69
2023/11/03 03:56:40;;;;;;;4.60;1.95;;;;;;;5.74;74.90;95814.38;4981326;28;102731;-68
2023/11/03 03:59:08;;;;;;;4.75;2.42;;;;;;;5.60;74.92;95821.47;4996665;28;103154;-66
2023/11/03 04:01:50;;;;;;;7.57;2.20;;;;;;;5.55;75.51;95829.97;4974836;28;103362;-65
2023/11/03 04:04:18;;;;;;;3.20;1.85;;;;;;;5.63;75.77;95831.56;4994159;28;113334;-66
2023/11/03 04:06:46;;;;;;;3.33;1.73;;;;;;;5.71;75.60;95836.59;4978804;28;102780;-65
2023/11/03 04:09:16;;;;;;;4.03;1.98;;;;;;;5.78;75.29;95840.00;4996317;28;104189;-66
2023/11/03 04:11:44;;;;;;;4.53;1.90;;;;;;;5.79;75.14;95852.13;4995387;28;103208;-67
2023/11/03 04:14:11;;;;;;;2.45;1.73;;;;;;;5.78;75.20;95849.69;4978403;28;103778;-67
2023/11/03 04:16:39;;;;;;;5.43;2.15;;;;;;;5.81;75.18;95857.94;4999476;28;102664;-66
2023/11/03 04:19:07;;;;;;;3.47;2.17;;;;;;;5.88;74.88;95850.06;4998175;28;104078;-67
2023/11/03 04:21:35;;;;;;;3.85;2.05;;;;;;;5.90;75.09;95842.78;4991743;28;103259;-67
2023/11/03 04:24:04;;;;;;;4.68;2.22;;;;;;;5.84;76.16;95840.19;4995963;28;103284;-67
2023/11/03 04:26:33;;;;;;;7.93;3.08;;;;;;;5.93;75.69;95831.03;4988253;28;103048;-67
2023/11/03 04:29:01;;;;;;;8.88;2.65;;;;;;;5.94;75.36;95827.41;5000031;28;102648;-66
2023/11/03 04:31:29;;;;;;;4.15;2.10;;;;;;;5.96;75.38;95826.19;4993062;28;103410;-67
2023/11/03 04:33:57;;;;;;;3.92;1.90;;;;;;;6.06;75.27;95823.13;4998957;28;103315;-67
2023/11/03 04:36:25;;;;;;;7.38;2.17;;;;;;;6.10;74.91;95819.06;4996690;28;102553;-67
2023/11/03 04:38:53;;;;;;;2.45;1.60;;;;;;;6.16;74.79;95813.97;4998817;28;102680;-67
2023/11/03 04:41:21;;;;;;;1.83;1.30;;;;;;;6.20;75.02;95815.19;4993855;28;103746;-67
2023/11/03 04:43:50;;;;;;;4.30;1.52;;;;;;;6.24;74.60;95816.38;4997302;28;103276;-67
2023/11/03 04:46:18;;;;;;;8.02;2.30;;;;;;;6.30;74.70;95815.50;5000772;28;102767;-67
2023/11/03 04:48:46;;;;;;;5.65;1.92;;;;;;;6.33;74.66;95825.63;4996724;28;102774;-67
2023/11/03 04:51:14;;;;;;;2.88;1.48;;;;;;;6.36;74.66;95825.19;4994318;28;104061;-66
2023/11/03 04:53:44;;;;;;;2.15;1.40;;;;;;;6.40;75.06;95836.88;4996242;28;103242;-67
2023/11/03 04:56:12;;;;;;;3.50;1.30;;;;;;;6.45;75.40;95849.41;5000275;28;103121;-67
2023/11/03 04:58:42;;;;;;;4.07;1.70;;;;;;;6.51;75.04;95839.84;4982645;28;102847;-67
2023/11/03 05:01:13;;;;;;;6.95;2.08;;;;;;;6.50;74.56;95844.31;4999514;28;103859;-66
2023/11/03 05:03:41;;;;;;;9.23;2.85;;;;;;;6.46;74.34;95838.66;4982645;28;103017;-66
2023/11/03 05:06:10;;;;;;;4.03;1.80;;;;;;;6.51;73.68;95832.78;4977168;28;102711;-67
2023/11/03 05:08:39;;;;;;;3.40;2.10;;;;;;;6.54;73.39;95832.34;4983023;28;103464;-66
2023/11/03 05:11:08;;;;;;;7.68;3.00;;;;;;;6.56;73.10;95818.97;4980200;28;104118;-65
2023/11/03 05:13:37;;;;;;;5.25;2.45;;;;;;;6.57;73.44;95831.13;4995385;28;103305;-66
2023/11/03 05:16:05;;;;;;;5.32;2.20;;;;;;;6.55;73.20;95838.41;4992133;28;103346;-65
2023/11/03 05:18:34;;;;;;;3.85;1.90;;;;;;;6.50;73.24;95841.69;4989877;28;103829;-66
2023/11/03 05:21:03;;;;;;;6.38;2.55;;;;;;;6.57;73.23;95849.53;4996360;28;104393;-66
2023/11/03 05:23:31;;;;;;;3.88;1.90;;;;;;;6.57;73.56;95849.53;4993537;28;103328;-65
2023/11/03 05:25:59;;;;;;;4.68;1.67;;;;;;;6.62;73.71;95850.50;4999088;28;102600;-65
2023/11/03 05:28:26;;;;;;;2.70;1.50;;;;;;;6.67;72.98;95847.22;5000135;28;102713;-66
2023/11/03 05:30:54;;;;;;;3.40;1.80;;;;;;;6.72;73.58;95854.47;4980624;28;103299;-66
2023/11/03 05:33:22;;;;;;;3.20;1.60;;;;;;;6.73;73.11;95856.88;4995414;28;103288;-66
2023/11/03 05:35:54;;;;;;;4.30;1.80;;;;;;;6.80;73.26;95860.28;4994923;28;103305;-66
2023/11/03 05:38:22;;;;;;;4.82;2.03;;;;;;;6.82;73.43;95859.28;5000657;28;102955;-66
2023/11/03 05:40:50;;;;;;;3.22;1.85;;;;;;;6.85;73.55;95864.09;4999218;28;103353;-66
2023/11/03 05:43:18;;;;;;;3.10;1.58;;;;;;;6.90;73.62;95869.53;5000006;28;103302;-66
2023/11/03 05:45:46;;;;;;;3.33;1.50;;;;;;;6.91;73.50;95868.50;4991217;28;102647;-66
2023/11/03 05:48:13;;;;;;;3.10;1.83;;;;;;;6.90;73.94;95869.53;4995959;28;102723;-66
2023/11/03 05:50:42;;;;;;;5.03;1.90;;;;;;;6.89;73.24;95871.34;4981532;28;104315;-65
2023/11/03 05:53:14;;;;;;;3.90;1.73;;;;;;;6.93;72.73;95879.59;4977456;28;103213;-66
2023/11/03 05:55:42;;;;;;;3.63;1.70;;;;;;;6.97;73.06;95886.06;4996507;28;102610;-65
2023/11/03 05:58:10;;;;;;;8.55;1.90;;;;;;;7.00;72.66;95888.28;5000499;28;102638;-66
2023/11/03 06:00:38;;;;;;;2.75;1.50;;;;;;;7.04;72.40;95899.97;4998044;28;103585;-65
2023/11/03 06:03:06;;;;;;;2.97;1.50;;;;;;;7.05;72.11;95898.97;4998844;28;103252;-66
2023/11/03 06:05:34;;;;;;;3.67;1.58;;;;;;;7.08;72.76;95900.34;4983279;28;102766;-66
2023/11/03 06:08:02;;;;;;;2.53;1.33;;;;;;;7.10;72.51;95898.31;4998874;28;102816;-65
2023/11/03 06:10:32;;;;;;;4.95;1.77;;;;;;;7.08;72.45;95895.88;4999614;28;103020;-65
2023/11/03 06:12:59;;;;;;;6.97;2.22;;;;;;;7.08;72.21;95900.34;4997594;28;103419;-66
2023/11/03 06:15:27;;;;;;;5.10;2.25;;;;;;;6.97;72.12;95896.59;4998969;28;103006;-66
2023/11/03 06:17:55;;;;;;;7.50;2.40;;;;;;;6.99;71.92;95901.66;4977601;28;103628;-66
2023/11/03 06:20:26;;;;;;;4.63;1.70;;;;;;;6.99;71.76;95907.69;4994638;28;103187;-66
2023/11/03 06:22:54;;;;;;;5.10;1.67;;;;;;;7.02;72.13;95909.94;4990125;28;103230;-66
2023/11/03 06:25:22;;;;;;;4.63;1.73;;;;;;;7.05;71.85;95922.66;4980787;28;102733;-66
2023/11/03 06:27:51;;;;;;;5.90;2.47;;;;;;;7.08;71.24;95921.41;5000142;28;103087;-68
2023/11/03 06:30:19;;;;;;;5.85;2.28;;;;;;;6.99;71.72;95928.75;4980176;28;103146;-66
2023/11/03 06:32:50;;;;;;;4.05;2.30;;;;;;;7.03;72.06;95913.34;4974445;28;103307;-69
2023/11/03 06:35:18;;;;;;;5.53;1.83;;;;;;;7.04;71.22;95926.28;4996320;28;102584;-70
2023/11/03 06:37:48;;;;;;;2.83;1.52;;;;;;;7.08;71.28;95935.38;5001838;28;102726;-70
2023/11/03 06:40:18;;;;;;;4.20;1.60;;;;;;;7.16;71.23;95941.41;4997619;28;104048;-64
2023/11/03 06:42:46;;;;;;;3.10;1.75;;;;;;;7.16;71.10;95938.78;4980749;28;102785;-64
2023/11/03 06:45:18;;;;;;;4.85;2.13;;;;;;;7.13;71.78;95943.44;4998473;28;102765;-65
2023/11/03 06:47:48;;;;;;;4.18;1.88;;;;;;;7.20;71.32;95953.13;4999724;28;103833;-68
2023/11/03 06:50:16;;;;;;;5.90;1.73;;;;;;;7.21;72.17;95957.38;5001173;28;103224;-68
2023/11/03 06:52:44;;;;;;;2.67;1.90;;;;;;;7.25;72.13;95961.19;4996114;28;103357;-68
2023/11/03 06:55:13;;;;;;;4.82;1.88;;;;;;;7.27;71.87;95962.56;4991278;28;102623;-68
2023/11/03 06:57:41;;;;;;;4.05;1.65;;;;;;;7.25;72.25;95969.06;4990978;28;104042;-68
2023/11/03 07:00:12;;;;;;;3.08;1.83;;;;;;;7.24;72.14;95962.19;4997623;28;104431;-68
2023/11/03 07:02:42;;;;;;;2.67;1.45;;;;;;;7.30;72.61;95963.97;5000717;28;103301;-68
2023/11/03 07:05:10;;;;;;;4.63;1.55;;;;;;;7.36;72.04;95968.34;5001915;28;103090;-68
2023/11/03 07:07:39;;;;;;;4.47;1.80;;;;;;;7.32;72.14;95985.63;4995694;28;103916;-68
2023/11/03 07:10:09;;;;;;;3.80;1.80;;;;;;;7.30;71.47;95977.94;4997782;28;103245;-68
2023/11/03 07:12:37;;;;;;;6.82;1.83;;;;;;;7.34;71.39;95988.84;4998267;28;103203;-68
2023/11/03 07:15:06;;;;;;;3.08;1.60;;;;;;;7.34;71.37;95983.59;4979110;28;102781;-68
2023/11/03 07:17:34;;;;;;;2.03;1.50;;;;;;;7.40;71.52;95992.44;4996994;28;102731;-68
2023/11/03 07:20:05;;;;;;;5.43;2.25;;;;;;;7.41;71.83;95984.31;4991601;28;104337;-68
2023/11/03 07:22:34;;;;;;;4.68;1.80;;;;;;;7.42;71.69;95982.50;4993995;28;102970;-68
2023/11/03 07:25:02;;;;;;;3.95;1.98;;;;;;;7.43;71.62;95986.75;4992644;28;102770;-68
2023/11/03 07:27:30;;;;;;;2.30;1.50;;;;;;;7.45;71.60;95984.72;4995353;28;102756;-69
2023/11/03 07:30:00;;;;;;;3.58;1.50;;;;;;;7.41;72.10;95989.59;4989873;28;103008;-65
2023/11/03 07:32:29;;;;;;;5.78;1.80;;;;;;;7.47;72.57;95995.84;4993606;28;104594;-64
2023/11/03 07:35:01;;;;;;;3.25;1.52;;;;;;;7.54;72.21;95995.78;4980951;28;102669;-64
2023/11/03 07:37:30;;;;;;;4.57;1.70;;;;;;;7.55;72.49;95998.19;4989463;28;102759;-66
2023/11/03 07:39:59;;;;;;;2.85;1.48;;;;;;;7.58;71.73;95989.06;4979966;28;104168;-69
2023/11/03 07:42:27;;;;;;;5.38;2.10;;;;;;;7.58;72.04;95992.50;4994681;28;102721;-69
2023/11/03 07:44:55;;;;;;;2.95;1.52;;;;;;;7.61;72.49;96000.00;4995369;28;102732;-69
2023/11/03 07:47:23;;;;;;;3.95;2.03;;;;;;;7.64;72.11;95998.75;4995785;28;102702;-69
2023/11/03 07:49:53;;;;;;;8.30;1.95;;;;;;;7.67;72.18;96003.56;4994716;28;102954;-68
2023/11/03 07:52:21;;;;;;;1.30;1.20;;;;;;;7.68;72.18;96007.81;4995262;28;103201;-69
2023/11/03 07:54:51;;;;;;;7.88;2.85;;;;;;;7.72;71.25;95997.66;4994838;28;102681;-68
2023/11/03 07:57:18;;;;;;;5.78;1.98;;;;;;;7.68;71.32;95999.94;4993560;28;102798;-69
2023/11/03 07:59:47;;;;;;;3.97;1.90;;;;;;;7.68;71.91;95999.94;4995578;28;103313;-68
2023/11/03 08:02:15;;;;;;;4.75;2.60;;;;;;;7.71;70.80;96001.31;4977933;28;103393;-69
2023/11/03 08:04:43;;;;;;;4.43;2.13;;;;;;;7.70;70.28;96005.78;4997570;28;102641;-68
2023/11/03 08:07:11;;;;;;;2.13;1.30;;;;;;;7.71;70.96;96003.97;4981185;28;102962;-68
2023/11/03 08:09:39;;;;;;;3.45;1.88;;;;;;;7.76;70.46;96002.28;4998109;28;103211;-68
2023/11/03 08:12:08;;;;;;;3.40;1.88;;;;;;;7.78;70.85;96002.06;4997828;28;103267;-68
2023/11/03 08:14:36;;;;;;;8.65;1.70;;;;;;;7.80;70.86;96010.56;4985797;28;103348;-68
2023/11/03 08:17:05;;;;;;;3.40;1.58;;;;;;;7.88;70.54;96010.28;4974600;28;102761;-68
2023/11/03 08:19:33;;;;;;;4.65;1.92;;;;;;;7.94;70.16;96013.91;4995112;28;104088;-68
2023/11/03 08:22:01;;;;;;;4.63;1.90;;;;;;;7.95;69.06;96010.22;4994525;28;103112;-68
2023/11/03 08:24:30;;;;;;;4.40;1.83;;;;;;;7.96;69.29;96019.75;4979033;28;102879;-68
2023/11/03 08:26:59;;;;;;;2.60;1.40;;;;;;;8.06;69.70;96017.41;4997988;28;104009;-68
2023/11/03 08:29:30;;;;;;;4.30;1.80;;;;;;;8.09;69.48;96021.44;4995404;28;104065;-69
2023/11/03 08:31:59;;;;;;;3.42;1.58;;;;;;;8.21;69.84;96026.81;4973317;28;103104;-68
2023/11/03 08:34:27;;;;;;;5.07;2.47;;;;;;;8.27;68.84;96033.84;4978559;28;102709;-68
2023/11/03 08:36:56;;;;;;;4.53;2.00;;;;;;;8.27;68.66;96028.56;4998501;28;104272;-69
2023/11/03 08:39:27;;;;;;;4.22;1.70;;;;;;;8.28;68.15;96030.19;4982719;28;103285;-68
2023/11/03 08:41:59;;;;;;;5.35;2.45;;;;;;;8.25;68.62;96036.72;4995057;28;103131;-68
2023/11/03 08:44:28;;;;;;;5.55;1.88;;;;;;;8.25;68.19;96041.16;4994248;28;102691;-69
2023/11/03 08:46:57;;;;;;;4.05;1.88;;;;;;;8.28;68.13;96038.91;4996512;28;102844;-69
2023/11/03 08:49:27;;;;;;;3.55;1.83;;;;;;;8.38;68.06;96051.56;4988801;28;103035;-68
2023/11/03 08:51:56;;;;;;;3.45;1.75;;;;;;;8.30;67.90;96049.22;4995800;28;103380;-66
2023/11/03 08:54:24;;;;;;;5.32;2.00;;;;;;;8.31;68.30;96056.13;4997035;28;102750;-65
2023/11/03 08:56:53;;;;;;;5.90;2.13;;;;;;;8.38;68.53;96056.84;4994370;28;103196;-68
2023/11/03 08:59:21;;;;;;;3.45;1.63;;;;;;;8.55;67.60;96062.38;4994759;28;103290;-64
2023/11/03 09:01:54;;;;;;;2.92;2.00;;;;;;;8.61;67.25;96065.97;4974658;28;103238;-64
2023/11/03 09:04:26;;;;;;;5.25;1.80;;;;;;;8.47;67.17;96065.31;4983527;28;102720;-64
2023/11/03 09:06:54;;;;;;;3.22;1.98;;;;;;;8.55;67.61;96061.56;4997555;28;103099;-64
2023/11/03 09:09:23;;;;;;;7.35;1.88;;;;;;;8.63;67.16;96074.47;4998904;28;103360;-64
2023/11/03 09:11:51;;;;;;;3.22;1.55;;;;;;;8.75;68.07;96072.72;4995280;28;103246;-65
2023/11/03 09:14:19;;;;;;;4.80;1.60;;;;;;;8.73;67.16;96082.66;4981689;28;102706;-65
2023/11/03 09:16:47;;;;;;;7.30;1.88;;;;;;;8.75;66.92;96072.72;4996006;28;102711;-64
2023/11/03 09:19:16;;;;;;;5.40;2.13;;;;;;;8.85;66.53;96068.75;4998839;28;103454;-64
2023/11/03 09:21:46;;;;;;;7.63;1.77;;;;;;;8.86;66.23;96068.50;4990003;28;103243;-69
2023/11/03 09:24:14;;;;;;;2.92;1.65;;;;;;;8.91;66.42;96070.50;4960072;28;102735;-69
2023/11/03 09:26:42;;;;;;;4.78;2.15;;;;;;;8.89;66.48;96072.53;4978288;28;104072;-68
2023/11/03 09:29:11;;;;;;;3.60;1.70;;;;;;;8.99;66.51;96070.19;4988198;28;103120;-65
2023/11/03 09:31:39;;;;;;;4.93;1.63;;;;;;;9.05;66.14;96061.38;4991180;28;103121;-69
2023/11/03 09:34:08;;;;;;;5.35;1.80;;;;;;;8.94;65.40;96056.84;4986994;28;103166;-67
2023/11/03 09:36:38;;;;;;;4.40;1.67;;;;;;;8.95;66.32;96063.75;4988168;28;104073;-66
2023/11/03 09:39:09;;;;;;;3.72;1.60;;;;;;;8.87;66.15;96061.41;4997909;28;103238;-65
2023/11/03 09:41:41;;;;;;;5.28;1.77;;;;;;;8.92;65.41;96056.25;5000099;28;103437;-64
2023/11/03 09:44:10;;;;;;;3.58;1.73;;;;;;;9.10;65.17;96050.97;4984103;28;102771;-69
2023/11/03 09:46:39;;;;;;;3.72;1.60;;;;;;;9.15;65.29;96041.56;5005768;28;103012;-67
2023/11/03 09:49:08;;;;;;;4.25;2.00;;;;;;;9.19;65.32;96034.81;4975148;28;103942;-66
2023/11/03 09:51:39;;;;;;;5.60;1.95;;;;;;;9.10;64.50;96040.41;4978141;28;103158;-68
2023/11/03 09:54:12;;;;;;;2.92;1.83;;;;;;;9.17;64.34;96042.94;4997568;28;102822;-68
2023/11/03 09:56:45;;;;;;;;;;;;;;;9.09;64.43;96046.72;5004273;28;102587;-68
2023/11/03 09:59:17;;;;;;;4.30;1.77;;;;;;;9.20;64.27;96052.25;4979052;28;103491;-68
2023/11/03 10:01:46;;;;;;;3.28;1.75;;;;;;;9.37;63.65;96052.44;4998371;28;103157;-64
2023/11/03 10:08:44;;;;;;;7.93;2.20;;;;;;;9.25;63.47;96055.84;4988243;28;102736;-64
2023/11/03 10:11:14;;;;;;;3.60;1.52;;;;;;;9.34;64.00;96045.75;4986205;28;103392;-69
2023/11/03 10:13:42;;;;;;;3.40;1.83;;;;;;;9.38;63.93;96035.53;4981507;28;103243;-64
2023/11/03 10:16:11;;;;;;;3.83;1.55;;;;;;;9.36;64.29;96035.75;4997657;28;102747;-65
2023/11/03 10:18:43;;;;;;;8.43;1.80;;;;;;;9.60;64.08;96035.81;4977479;28;102978;-64
2023/11/03 10:21:13;;;;;;;2.75;1.40;;;;;;;9.67;62.90;96041.81;4999873;28;103299;-68
2023/11/03 10:23:41;;;;;;;2.38;1.30;;;;;;;9.76;63.86;96035.16;5002528;28;102964;-65
2023/11/03 10:26:10;;;;;;;2.58;1.50;;;;;;;9.83;62.29;96026.31;4984901;28;102705;-68
2023/11/03 10:28:44;;;;;;;3.55;1.73;;;;;;;9.95;63.09;96027.13;4980950;28;102793;-64
2023/11/03 10:31:14;;;;;;;1.58;1.10;;;;;;;9.96;63.08;96026.09;5003087;28;103229;-68
2023/11/03 10:33:43;;;;;;;2.17;1.40;;;;;;;9.85;63.15;96018.94;5003390;28;103232;-67
2023/11/03 10:36:12;;;;;;;3.15;1.40;;;;;;;9.91;63.69;96020.69;4984173;28;102635;-63
2023/11/03 10:38:41;;;;;;;2.53;1.55;;;;;;;10.16;62.71;96022.28;5002890;28;103873;-64
2023/11/03 10:41:25;;;;;;;1.97;1.43;;;;;;;10.01;62.78;96018.28;5003024;28;103134;-68
2023/11/03 10:43:58;;;;;;;2.60;1.40;;;;;;;10.21;61.81;96017.13;4978546;28;103225;-64
2023/11/03 10:46:36;;;;;;;3.53;1.60;;;;;;;10.24;61.98;96014.00;4978487;28;102698;-64
2023/11/03 10:49:15;;;;;;;2.17;1.30;;;;;;;10.01;61.38;96020.91;4980804;28;103178;-68
2023/11/03 10:51:52;;;;;;;2.38;1.40;;;;;;;9.99;60.94;96022.97;4999349;28;103397;-64
2023/11/03 10:54:29;;;;;;;1.90;1.20;;;;;;;9.83;61.02;96019.19;5003083;28;102979;-68
2023/11/03 10:57:00;;;;;;;3.25;1.70;;;;;;;9.90;60.74;96013.78;4998939;28;102701;-69
2023/11/03 10:59:52;;;;;;;2.05;1.08;;;;;;;9.84;60.94;96014.69;5001504;28;102680;-71
2023/11/03 11:02:31;;;;;;;5.10;1.38;;;;;;;10.00;61.08;96003.44;4999059;28;103756;-65
2023/11/03 11:05:14;;;;;;;1.27;0.98;;;;;;;9.89;60.94;96014.81;4995281;28;103249;-64
2023/11/03 11:07:49;;;;;;;2.08;1.33;;;;;;;9.88;60.93;96016.66;4999867;28;102697;-64
2023/11/03 11:10:19;;;;;;;2.75;1.40;;;;;;;9.84;61.03;96025.25;4987089;28;104023;-69
2023/11/03 11:12:49;;;;;;;2.17;1.20;;;;;;;9.90;60.27;96019.06;4980459;28;106518;-69
2023/11/03 11:15:22;;;;;;;2.33;1.33;;;;;;;9.98;61.05;96021.34;5004333;28;103219;-64
2023/11/03 11:17:51;;;;;;;0.95;0.93;;;;;;;10.09;61.00;96012.63;4991351;28;102893;-64
2023/11/03 11:20:20;;;;;;;2.42;1.38;;;;;;;10.05;60.69;96024.72;4991017;28;104099;-64
2023/11/03 11:23:07;;;;;;;1.80;1.20;;;;;;;9.76;60.40;96013.19;4990831;28;103339;-68
2023/11/03 11:25:36;;;;;;;2.53;1.27;;;;;;;9.89;61.03;96020.09;4990223;28;103192;-64
2023/11/03 11:28:04;;;;;;;1.77;1.10;;;;;;;9.99;60.97;96017.69;4989885;28;102702;-64
2023/11/03 11:30:34;;;;;;;2.25;1.25;;;;;;;9.94;60.63;96028.16;5012123;28;103008;-64
2023/11/03 11:33:02;;;;;;;2.85;1.17;;;;;;;10.05;60.44;96022.06;5013803;28;103156;-64
2023/11/03 11:35:38;;;;;;;2.03;1.27;;;;;;;10.16;61.12;96030.22;5015147;28;103268;-64
2023/11/03 11:38:07;;;;;;;4.43;1.40;;;;;;;10.25;60.96;96021.69;4996351;28;102710;-69
2023/11/03 11:40:36;;;;;;;3.08;1.50;;;;;;;10.22;60.65;96026.66;5015952;28;103853;-64
2023/11/03 11:43:07;;;;;;;3.10;1.40;;;;;;;10.22;60.86;96032.75;5014746;28;103339;-64
2023/11/03 11:45:52;;;;;;;2.65;1.17;;;;;;;10.09;60.64;96033.78;4990086;28;103220;-64
2023/11/03 11:48:20;;;;;;;;;;;;;;;10.10;60.22;96035.41;5015574;28;103673;-64
2023/11/03 11:50:53;;;;;;;2.30;1.13;;;;;;;10.16;61.02;96031.03;5011662;28;102618;-64
2023/11/03 11:53:21;;;;;;;3.67;1.33;;;;;;;10.19;60.54;96035.88;5008517;28;103627;-68